x

Buoy E01 - Central Maine Shelf (44032) Wave Buoy

11:04 - Sat 23rd Sep 2017 All times are EDT. -4 hours from GMT.

  • Sig Wave height 5.2ft
  • Peak Period 8s
  • Wind
    4mph, 4mph gusts
  • Sea Temp 56°f
  • Aire Temp 59°f
  • Sea Pressure 1016.6mb
  • Buoy E01 - Central Maine Shelf
  • Buoy E01 - Central Maine Shelf

More Historic Weather Station data

Upgrade to MSW Pro to gain access to the past 30 days of data for over 8000 Wavebouys and Weather Stations around the globe.

Join

Comparision Forecast

View Surf forecast
   
sáb 09/23 11:04 5ft 8s 4 4 mph 1016.6mb 56f 59f
10:04 6ft 8s 2 2 mph 1016.4mb 55f 58f
9:04 5ft 8s 7 7 mph 1016.6mb 55f 57f
8:04 6ft 11s 9 11 mph 1016.4mb 55f 56f
7:04 5.5ft 11s 7 7 mph 1016.2mb 55f 56f
6:04 6ft 8s 7 9 mph 1016mb 55f 56f
5:04 6ft 8s 7 9 mph 1015.7mb 56f 57f
4:04 6ft 11s 9 11 mph 1016mb 56f 58f
3:04 5ft 8s 9 11 mph 1016.2mb 56f 59f
2:04 6ft 11s 9 9 mph 1016.3mb 57f 58f
1:04 6ft 8s 11 16 mph 1016.4mb 57f 58f
12:04 6.5ft 11s 11 11 mph 1016.4mb 56f 59f
vie 09/22 11:04 7.5ft 11s 13 16 mph 1016.9mb 57f 59f
10:04 8.5ft 11s 16 18 mph 1016.8mb 55f 59f
9:04 10ft 11s 11 13 mph 1017.1mb 55f 58f
8:04 7.5ft 11s 11 16 mph 1017.3mb 55f 58f
7:04 8.5ft 11s 16 18 mph 1016.9mb 55f 58f
6:04 8ft 11s 16 18 mph 1017mb 55f 58f
4:04 9ft 11s 13 16 mph 1017.1mb 55f 57f
3:04 10ft 11s 11 13 mph 1017.1mb 55f 58f
2:04 8ft 11s 16 20 mph 1017.1mb 55f 60f
1:04 8ft 11s 16 18 mph 1017.7mb 55f 58f
12:04 7.5ft 11s 20 22 mph 1017.9mb 55f 58f
11:04 8.5ft 8s 22 27 mph 1018.2mb 55f 57f
10:04 8ft 11s 22 27 mph 1018.4mb 55f 57f
9:04 8ft 11s 22 27 mph 1018.3mb 55f 56f
8:04 9ft 11s 22 25 mph 1018.1mb 55f 56f
7:04 9ft 11s 20 22 mph 1018.2mb 55f 56f
6:04 9ft 11s 20 25 mph 1017.8mb 56f 56f
5:04 8.5ft 11s 22 27 mph 1017.5mb 56f 57f
4:04 9ft 11s 20 22 mph 1017.6mb 56f 57f
3:04 9ft 11s 20 25 mph 1017.8mb 56f 58f
2:04 8ft 8s 16 18 mph 1018.3mb 56f 58f
1:04 7ft 11s 18 22 mph 1018.2mb 56f 58f
12:04 8ft 11s 20 25 mph 1017.9mb 56f 60f
jue 09/21 11:04 8ft 11s 18 20 mph 1018.2mb 56f 60f
10:04 7ft 11s 16 20 mph 1018.2mb 56f 61f
9:04 6.5ft 11s 18 22 mph 1018mb 56f 60f
8:04 7.5ft 11s 18 20 mph 1017.7mb 56f 60f
7:04 6.5ft 11s 18 22 mph 1017.4mb 56f 60f
6:04 6ft 8s 13 16 mph 1017mb 56f 59f
5:04 8ft 11s 11 13 mph 1017mb 56f 60f
4:04 7ft 11s 16 20 mph 1016.6mb 56f 64f
3:04 7ft 11s 18 20 mph 1016.6mb 56f 64f
2:04 6ft 11s 18 22 mph 1016.6mb 56f 63f
1:04 7ft 11s 18 20 mph 1016.7mb 56f 62f
12:04  -   -  20 22 mph 1017.1mb 56f 62f
11:04 7ft 8s 20 25 mph 1017.1mb 56f 62f
10:04 8ft 11s 22 29 mph 1017.1mb 56f 62f
9:04 7.5ft 11s 20 25 mph 1016.6mb 56f 61f
8:04 9ft 11s 22 27 mph 1015.7mb 56f 62f
7:04 8ft 11s 22 25 mph 1015mb 56f 62f
6:04 8.5ft 11s 18 22 mph 1014.5mb 56f 61f
5:04  -   -  22 25 mph 1013.9mb 56f 63f
4:04  -   -  20 25 mph 1013.3mb 56f 62f
3:04 7.5ft 11s 22 29 mph 1012.7mb 56f 63f
2:04 6ft 11s 20 25 mph 1012.7mb 56f 63f
1:04  -   -  20 22 mph 1012.7mb 56f 63f
12:04  -   -  20 22 mph 1012.5mb 56f 64f
mié 09/20 11:04 6.5ft 11s 18 22 mph 1012.7mb 57f 64f
10:04 5ft 8s 11 13 mph 1012.8mb 57f 62f
9:04 8ft 11s 11 13 mph 1012.2mb 56f 62f
8:04 7ft 11s 13 16 mph 1012.2mb 56f 62f
7:04 8ft 11s 13 13 mph 1012.3mb 56f 61f
6:04 7.5ft 11s 11 11 mph 1012.5mb 56f 60f
5:04 8.5ft 11s 11 11 mph 1012.1mb 56f 60f
4:04 6.5ft 11s 11 13 mph 1012.3mb 56f 62f
3:04 7ft 11s 16 16 mph 1012.1mb 56f 64f
2:04 8ft 11s 16 20 mph 1012.4mb 56f 62f
1:04  -   -  16 18 mph 1013mb 57f 63f
12:04 7ft 11s 18 22 mph 1013.2mb 58f 63f
11:04 6ft 11s 18 20 mph 1013.8mb 58f 62f
10:04  -   -  16 18 mph 1013.8mb 57f 61f
9:04  -   -  16 18 mph 1014.3mb 57f 61f
8:04 6.5ft 11s 16 18 mph 1014.4mb 57f 60f
7:04  -   -  18 20 mph 1014.6mb 57f 61f
6:04 7.5ft 11s 16 20 mph 1014.4mb 57f 60f
5:04  -   -  16 20 mph 1014.3mb 57f 61f
4:04 8ft 11s 18 20 mph 1014.5mb 57f 60f
3:04 6ft 11s 18 20 mph 1014.8mb 57f 60f
2:04 8ft 11s 16 20 mph 1015.3mb 58f 60f
1:04 7ft 11s 11 13 mph 1016mb 58f 59f
12:04 6ft 11s 16 18 mph 1016.2mb 58f 59f
mar 09/19 11:04  -   -  16 18 mph 1016.7mb 58f 59f
10:04 4.5ft 6s 13 18 mph 1017.3mb 58f 59f
9:04 5ft 8s 16 20 mph 1017.1mb 58f 59f
8:04  -   -  16 18 mph 1017.6mb 58f 59f
7:04  -   -  16 18 mph 1017.7mb 58f 58f
6:04  -   -  16 18 mph 1017.9mb 58f 58f
5:04 7.5ft 11s 16 18 mph 1017.9mb 58f 58f